createdAt,value
2023-02-01T00:00:38.569Z,99966.22
2023-02-01T00:03:06.668Z,99967.75
2023-02-01T00:05:33.992Z,99963.09
2023-02-01T00:08:01.401Z,99974.22
2023-02-01T00:10:28.914Z,99956.44
2023-02-01T00:12:56.313Z,99965.06
2023-02-01T00:15:24.171Z,99960.84
2023-02-01T00:17:56.075Z,99957.19
2023-02-01T00:20:24.959Z,99946.91
2023-02-01T00:22:52.655Z,99937.19
2023-02-01T00:25:20.096Z,99941.31
2023-02-01T00:27:51.449Z,99950.28
2023-02-01T00:30:19.938Z,99954.19
2023-02-01T00:32:47.684Z,99959.12
2023-02-01T00:35:15.480Z,99958.09
2023-02-01T00:37:43.018Z,99965.78
2023-02-01T00:40:10.518Z,99956.13
2023-02-01T00:42:37.692Z,99958.56
2023-02-01T00:45:05.365Z,99967.84
2023-02-01T00:47:33.016Z,99966.84
2023-02-01T00:50:00.317Z,99962.31
2023-02-01T00:52:28.176Z,99952.75
2023-02-01T00:54:55.346Z,99947.72
2023-02-01T00:57:22.532Z,99945.56
2023-02-01T00:59:49.969Z,99937.94
2023-02-01T01:02:17.261Z,99947.59
2023-02-01T01:04:44.457Z,99934.97
2023-02-01T01:07:11.986Z,99937.69
2023-02-01T01:09:39.237Z,99926.78
2023-02-01T01:12:06.404Z,99936.69
2023-02-01T01:14:33.886Z,99923.69
2023-02-01T01:17:01.111Z,99917.44
2023-02-01T01:19:28.273Z,99903.19
2023-02-01T01:21:55.727Z,99896.34
2023-02-01T01:24:22.907Z,99899.78
2023-02-01T01:26:50.371Z,99891.03
2023-02-01T01:29:17.988Z,99904.84
2023-02-01T01:31:45.238Z,99893.13
2023-02-01T01:34:12.466Z,99883.91
2023-02-01T01:36:39.933Z,99875.00
2023-02-01T01:39:07.083Z,99870.53
2023-02-01T01:41:34.486Z,99877.00
2023-02-01T01:44:28.045Z,99870.09
2023-02-01T01:46:55.323Z,99859.84
2023-02-01T01:49:23.528Z,99869.63
2023-02-01T01:51:52.450Z,99877.03
2023-02-01T01:54:21.195Z,99875.94
2023-02-01T01:56:50.097Z,99878.59
2023-02-01T01:59:17.417Z,99880.31
2023-02-01T02:01:44.699Z,99885.91
2023-02-01T02:04:12.292Z,99896.38
2023-02-01T02:06:51.361Z,99880.44
2023-02-01T02:09:19.089Z,99886.50
2023-02-01T02:11:46.574Z,99876.09
2023-02-01T02:14:14.562Z,99882.59
2023-02-01T02:16:46.572Z,99892.16
2023-02-01T02:19:29.660Z,99883.25
2023-02-01T02:22:15.263Z,99877.47
2023-02-01T02:25:01.985Z,99875.47
2023-02-01T02:27:55.719Z,99875.22
2023-02-01T02:30:23.472Z,99863.63
2023-02-01T02:33:09.485Z,99868.44
2023-02-01T02:35:55.636Z,99860.50
2023-02-01T02:38:42.537Z,99849.63
2023-02-01T02:41:10.055Z,99856.50
2023-02-01T02:43:58.180Z,99855.13
2023-02-01T02:46:45.766Z,99860.00
2023-02-01T02:49:19.074Z,99868.56
2023-02-01T02:52:06.415Z,99859.06
2023-02-01T02:54:51.766Z,99856.72
2023-02-01T02:57:38.716Z,99865.19
2023-02-01T03:00:26.536Z,99863.00
2023-02-01T03:03:13.059Z,99860.97
2023-02-01T03:05:45.109Z,99860.41
2023-02-01T03:08:12.729Z,99858.88
2023-02-01T03:10:43.207Z,99861.19
2023-02-01T03:13:12.754Z,99859.78
2023-02-01T03:15:45.031Z,99859.22
2023-02-01T03:18:17.983Z,99848.81
2023-02-01T03:20:46.246Z,99852.50
2023-02-01T03:23:13.618Z,99849.25
2023-02-01T03:25:41.536Z,99844.47
2023-02-01T03:28:12.356Z,99855.75
2023-02-01T03:30:41.377Z,99867.88
2023-02-01T03:33:23.167Z,99860.53
2023-02-01T03:35:56.618Z,99856.47
2023-02-01T03:38:50.128Z,99860.56
2023-02-01T03:41:17.594Z,99867.28
2023-02-01T03:43:59.392Z,99865.34
2023-02-01T03:46:36.630Z,99847.87
2023-02-01T03:49:06.352Z,99844.16
2023-02-01T03:51:33.755Z,99843.03
2023-02-01T03:54:01.077Z,99849.50
2023-02-01T03:56:28.612Z,99854.88
2023-02-01T03:59:00.157Z,99842.94
2023-02-01T04:01:28.445Z,99860.28
2023-02-01T04:03:56.824Z,99848.97
2023-02-01T04:06:24.212Z,99852.72
2023-02-01T04:08:51.749Z,99842.38
2023-02-01T04:11:19.464Z,99861.63
2023-02-01T04:13:46.679Z,99860.88
2023-02-01T04:16:14.134Z,99858.19
2023-02-01T04:18:41.604Z,99858.72
2023-02-01T04:21:08.808Z,99851.59
2023-02-01T04:23:39.809Z,99849.00
2023-02-01T04:26:07.758Z,99851.75
2023-02-01T04:28:35.001Z,99863.81
2023-02-01T04:31:02.227Z,99864.22
2023-02-01T04:33:29.702Z,99857.97
2023-02-01T04:35:57.036Z,99870.09
2023-02-01T04:38:24.283Z,99867.09
2023-02-01T04:40:51.840Z,99864.75
2023-02-01T04:43:19.223Z,99864.50
2023-02-01T04:45:49.940Z,99870.03
2023-02-01T04:48:18.241Z,99864.37
2023-02-01T04:50:48.406Z,99868.25
2023-02-01T04:53:16.044Z,99863.56
2023-02-01T04:55:43.817Z,99867.16
2023-02-01T04:58:11.118Z,99866.59
2023-02-01T05:00:38.752Z,99878.63
2023-02-01T05:03:06.282Z,99875.59
2023-02-01T05:05:33.490Z,99884.75
2023-02-01T05:08:00.684Z,99871.47
2023-02-01T05:10:28.204Z,99877.69
2023-02-01T05:13:14.142Z,99882.66
2023-02-01T05:15:41.631Z,99862.81
2023-02-01T05:18:08.809Z,99866.09
2023-02-01T05:20:35.982Z,99861.44
2023-02-01T05:23:03.517Z,99864.44
2023-02-01T05:25:30.715Z,99857.84
2023-02-01T05:27:57.888Z,99863.03
2023-02-01T05:30:25.596Z,99849.03
2023-02-01T05:32:53.281Z,99843.66
2023-02-01T05:35:20.472Z,99850.69
2023-02-01T05:37:47.988Z,99849.50
2023-02-01T05:40:15.290Z,99858.19
2023-02-01T05:42:42.461Z,99833.59
2023-02-01T05:45:10.161Z,99853.84
2023-02-01T05:47:37.439Z,99861.88
2023-02-01T05:50:05.054Z,99861.28
2023-02-01T05:52:32.443Z,99870.22
2023-02-01T05:54:59.626Z,99880.88
2023-02-01T05:57:26.765Z,99881.72
2023-02-01T05:59:54.204Z,99876.91
2023-02-01T06:02:22.768Z,99880.78
2023-02-01T06:04:50.282Z,99874.41
2023-02-01T06:07:17.489Z,99868.00
2023-02-01T06:09:44.696Z,99879.41
2023-02-01T06:12:13.287Z,99887.03
2023-02-01T06:14:40.523Z,99887.53
2023-02-01T06:17:07.984Z,99902.75
2023-02-01T06:19:35.487Z,99897.06
2023-02-01T06:22:02.673Z,99892.72
2023-02-01T06:24:29.901Z,99911.97
2023-02-01T06:26:57.361Z,99919.78
2023-02-01T06:29:25.048Z,99915.13
2023-02-01T06:31:52.526Z,99908.06
2023-02-01T06:34:22.178Z,99917.78
2023-02-01T06:36:49.645Z,99908.47
2023-02-01T06:39:17.270Z,99916.06
2023-02-01T06:41:48.417Z,99910.47
2023-02-01T06:44:15.939Z,99914.41
2023-02-01T06:46:43.270Z,99918.16
2023-02-01T06:49:12.098Z,99914.69
2023-02-01T06:51:39.346Z,99930.91
2023-02-01T06:54:06.502Z,99919.50
2023-02-01T06:56:34.069Z,99927.75
2023-02-01T06:59:03.029Z,99914.78
2023-02-01T07:01:30.197Z,99922.25
2023-02-01T07:03:57.737Z,99923.31
2023-02-01T07:06:24.967Z,99930.66
2023-02-01T07:08:52.139Z,99925.84
2023-02-01T07:11:19.936Z,99918.75
2023-02-01T07:13:47.283Z,99928.53
2023-02-01T07:16:15.652Z,99932.97
2023-02-01T07:18:43.129Z,99935.25
2023-02-01T07:21:10.442Z,99943.59
2023-02-01T07:23:37.935Z,99952.91
2023-02-01T07:26:06.355Z,99950.50
2023-02-01T07:28:34.468Z,99949.91
2023-02-01T07:31:08.937Z,99961.34
2023-02-01T07:33:36.499Z,99955.78
2023-02-01T07:36:04.442Z,99955.06
2023-02-01T07:38:31.747Z,99961.59
2023-02-01T07:41:00.463Z,99964.41
2023-02-01T07:43:28.236Z,99981.00
2023-02-01T07:45:55.617Z,99981.16
2023-02-01T07:48:23.625Z,99965.69
2023-02-01T07:50:57.971Z,99966.44
2023-02-01T07:53:25.447Z,99969.69
2023-02-01T07:55:52.599Z,99970.28
2023-02-01T07:58:19.849Z,99974.91
2023-02-01T08:01:06.379Z,99964.97
2023-02-01T08:03:33.880Z,99955.28
2023-02-01T08:06:01.094Z,99964.25
2023-02-01T08:08:28.714Z,99966.75
2023-02-01T08:10:59.663Z,99956.81
2023-02-01T08:13:26.876Z,99963.16
2023-02-01T08:15:54.011Z,99970.69
2023-02-01T08:18:21.887Z,99969.19
2023-02-01T08:20:49.108Z,99972.63
2023-02-01T08:23:16.461Z,99985.91
2023-02-01T08:25:44.308Z,99990.38
2023-02-01T08:28:11.804Z,99990.28
2023-02-01T08:30:39.698Z,99989.47
2023-02-01T08:33:10.138Z,100000.94
2023-02-01T08:35:43.937Z,100012.50
2023-02-01T08:38:11.955Z,99997.12
2023-02-01T08:40:39.257Z,99999.94
2023-02-01T08:43:06.781Z,100003.06
2023-02-01T08:45:34.683Z,100000.84
2023-02-01T08:48:01.913Z,100003.13
2023-02-01T08:50:29.317Z,99988.84
2023-02-01T08:52:57.004Z,99991.09
2023-02-01T08:55:26.225Z,100000.00
2023-02-01T08:57:53.632Z,99987.38
2023-02-01T09:00:21.730Z,99990.03
2023-02-01T09:02:49.255Z,99986.91
2023-02-01T09:05:19.276Z,99993.34
2023-02-01T09:07:46.968Z,99995.63
2023-02-01T09:10:15.797Z,99989.38
2023-02-01T09:12:44.521Z,99987.66
2023-02-01T09:15:12.299Z,99982.34
2023-02-01T09:17:40.605Z,99968.69
2023-02-01T09:20:08.015Z,99985.44
2023-02-01T09:22:35.553Z,99994.31
2023-02-01T09:25:03.024Z,99977.41
2023-02-01T09:27:30.565Z,99956.66
2023-02-01T09:29:58.773Z,99974.34
2023-02-01T09:32:26.341Z,99980.50
2023-02-01T09:34:53.903Z,99986.66
2023-02-01T09:37:21.723Z,100002.50
2023-02-01T09:39:49.267Z,100007.50
2023-02-01T09:42:50.726Z,100011.25
2023-02-01T09:45:21.535Z,100018.28
2023-02-01T09:47:53.915Z,100019.72
2023-02-01T09:50:24.789Z,100019.38
2023-02-01T09:52:58.390Z,100012.53
2023-02-01T09:55:47.725Z,100012.22
2023-02-01T09:58:16.035Z,100019.00
2023-02-01T10:00:53.211Z,100012.94
2023-02-01T10:03:21.808Z,100007.41
2023-02-01T10:06:01.395Z,100002.53
2023-02-01T10:08:39.029Z,100000.37
2023-02-01T10:11:32.555Z,99998.53
2023-02-01T10:14:05.095Z,99988.50
2023-02-01T10:16:42.132Z,99974.25
2023-02-01T10:19:54.382Z,99968.59
2023-02-01T10:23:05.009Z,99953.91
2023-02-01T10:25:41.228Z,99948.84
2023-02-01T10:28:14.383Z,99958.16
2023-02-01T10:30:45.862Z,99942.28
2023-02-01T10:33:35.740Z,99945.13
2023-02-01T10:36:06.442Z,99946.16
2023-02-01T10:38:34.589Z,99934.78
2023-02-01T10:41:05.350Z,99926.50
2023-02-01T10:43:35.010Z,99924.97
2023-02-01T10:46:03.049Z,99939.37
2023-02-01T10:48:31.213Z,99949.09
2023-02-01T10:51:01.887Z,99938.06
2023-02-01T10:53:40.647Z,99941.19
2023-02-01T10:56:10.024Z,99939.31
2023-02-01T10:58:45.032Z,99933.44
2023-02-01T11:01:32.116Z,99930.84
2023-02-01T11:04:02.003Z,99934.94
2023-02-01T11:06:41.673Z,99922.81
2023-02-01T11:09:09.010Z,99915.44
2023-02-01T11:12:00.534Z,99919.00
2023-02-01T11:14:35.213Z,99906.03
2023-02-01T11:17:04.944Z,99906.72
2023-02-01T11:19:32.572Z,99896.72
2023-02-01T11:22:01.629Z,99902.56
2023-02-01T11:24:34.452Z,99889.59
2023-02-01T11:27:06.713Z,99876.88
2023-02-01T11:29:40.250Z,99879.13
2023-02-01T11:32:09.352Z,99884.28
2023-02-01T11:34:40.280Z,99871.16
2023-02-01T11:37:16.960Z,99857.91
2023-02-01T11:39:57.569Z,99864.28
2023-02-01T11:42:25.995Z,99862.94
2023-02-01T11:45:29.944Z,99851.78
2023-02-01T11:47:59.313Z,99850.44
2023-02-01T11:50:56.143Z,99856.53
2023-02-01T11:53:56.195Z,99840.37
2023-02-01T11:56:34.739Z,99845.03
2023-02-01T11:59:05.091Z,99847.78
2023-02-01T12:01:36.823Z,99838.72
2023-02-01T12:04:15.000Z,99841.84
2023-02-01T12:06:52.956Z,99840.13
2023-02-01T12:09:53.300Z,99851.28
2023-02-01T12:12:26.938Z,99841.50
2023-02-01T12:15:15.959Z,99848.03
2023-02-01T12:18:02.107Z,99852.84
2023-02-01T12:20:35.748Z,99863.97
2023-02-01T12:23:15.099Z,99864.16
2023-02-01T12:25:45.534Z,99870.31
2023-02-01T12:28:19.017Z,99866.06
2023-02-01T12:30:49.652Z,99881.03
2023-02-01T12:33:16.974Z,99873.41
2023-02-01T12:35:49.848Z,99865.78
2023-02-01T12:38:21.103Z,99881.97
2023-02-01T12:41:07.033Z,99867.75
2023-02-01T12:43:39.622Z,99869.09
2023-02-01T12:46:26.756Z,99865.16
2023-02-01T12:48:58.857Z,99855.03
2023-02-01T12:51:27.699Z,99854.88
2023-02-01T12:53:56.584Z,99843.28
2023-02-01T12:56:38.491Z,99840.28
2023-02-01T12:59:07.678Z,99840.03
2023-02-01T13:01:35.048Z,99825.66
2023-02-01T13:04:20.513Z,99828.59
2023-02-01T13:07:00.115Z,99815.78
2023-02-01T13:09:33.097Z,99810.25
2023-02-01T13:12:01.992Z,99810.87
2023-02-01T13:14:32.662Z,99804.91
2023-02-01T13:17:12.761Z,99798.41
2023-02-01T13:19:55.727Z,99804.91
2023-02-01T13:22:28.920Z,99801.47
2023-02-01T13:24:56.463Z,99788.34
2023-02-01T13:27:24.908Z,99787.87
2023-02-01T13:29:54.274Z,99795.00
2023-02-01T13:33:50.078Z,99787.84
2023-02-01T13:35:41.171Z,99785.25
2023-02-01T13:38:08.792Z,99784.97
2023-02-01T13:40:39.008Z,99787.19
2023-02-01T13:43:07.974Z,99774.22
2023-02-01T13:45:36.213Z,99780.63
2023-02-01T13:48:04.731Z,99797.94
2023-02-01T13:50:35.034Z,99788.84
2023-02-01T13:53:06.025Z,99799.19
2023-02-01T13:55:34.503Z,99806.53
2023-02-01T13:58:20.631Z,99809.69
2023-02-01T14:00:48.936Z,99816.09
2023-02-01T14:03:17.667Z,99819.56
2023-02-01T14:05:44.900Z,99812.50
2023-02-01T14:08:16.117Z,99810.03
2023-02-01T14:10:48.420Z,99815.66
2023-02-01T14:13:34.461Z,99818.25
2023-02-01T14:16:05.687Z,99812.03
2023-02-01T14:18:35.849Z,99793.44
2023-02-01T14:21:23.712Z,99805.31
2023-02-01T14:23:54.663Z,99798.59
2023-02-01T14:26:22.994Z,99811.75
2023-02-01T14:29:01.594Z,99809.38
2023-02-01T14:31:32.452Z,99825.28
2023-02-01T14:34:00.470Z,99811.47
2023-02-01T14:36:27.759Z,99807.09
2023-02-01T14:38:55.361Z,99810.94
2023-02-01T14:41:26.658Z,99809.28
2023-02-01T14:44:04.426Z,99812.63
2023-02-01T14:46:51.682Z,99810.87
2023-02-01T14:49:19.933Z,99804.31
2023-02-01T14:51:47.697Z,99813.84
2023-02-01T14:54:14.861Z,99811.66
2023-02-01T14:56:42.202Z,99812.91
2023-02-01T14:59:11.027Z,99806.28
2023-02-01T15:01:40.112Z,99800.78
2023-02-01T15:04:10.196Z,99805.50
2023-02-01T15:06:44.360Z,99806.38
2023-02-01T15:09:18.508Z,99811.41
2023-02-01T15:11:58.433Z,99819.72
2023-02-01T15:14:26.135Z,99814.97
2023-02-01T15:16:57.082Z,99800.94
2023-02-01T15:19:27.997Z,99805.72
2023-02-01T15:21:56.415Z,99812.16
2023-02-01T15:24:29.196Z,99803.00
2023-02-01T15:26:57.117Z,99807.94
2023-02-01T15:29:28.936Z,99805.66
2023-02-01T15:31:56.568Z,99810.09
2023-02-01T15:34:23.782Z,99815.38
2023-02-01T15:37:02.581Z,99813.22
2023-02-01T15:39:32.450Z,99819.75
2023-02-01T15:42:05.317Z,99823.72
2023-02-01T15:44:44.057Z,99818.56
2023-02-01T15:47:16.559Z,99824.09
2023-02-01T15:49:44.681Z,99824.28
2023-02-01T15:52:17.473Z,99825.47
2023-02-01T15:54:47.529Z,99835.06
2023-02-01T15:57:15.958Z,99829.62
2023-02-01T15:59:43.781Z,99847.78
2023-02-01T16:02:26.715Z,99842.88
2023-02-01T16:04:55.472Z,99844.28
2023-02-01T16:07:28.207Z,99849.59
2023-02-01T16:09:56.583Z,99861.84
2023-02-01T16:12:36.742Z,99861.41
2023-02-01T16:15:04.431Z,99861.84
2023-02-01T16:17:31.946Z,99866.91
2023-02-01T16:19:59.336Z,99853.56
2023-02-01T16:22:27.242Z,99860.28
2023-02-01T16:24:54.841Z,99872.25
2023-02-01T16:27:23.337Z,99867.03
2023-02-01T16:29:51.407Z,99856.47
2023-02-01T16:32:19.975Z,99865.44
2023-02-01T16:34:47.981Z,99871.16
2023-02-01T16:37:17.496Z,99870.50
2023-02-01T16:39:45.251Z,99869.50
2023-02-01T16:42:13.563Z,99856.94
2023-02-01T16:44:41.649Z,99850.19
2023-02-01T16:47:13.917Z,99858.53
2023-02-01T16:49:42.116Z,99854.81
2023-02-01T16:52:13.266Z,99854.34
2023-02-01T16:54:40.706Z,99846.03
2023-02-01T16:57:12.400Z,99850.31
2023-02-01T16:59:39.996Z,99847.97
2023-02-01T17:02:11.363Z,99850.00
2023-02-01T17:04:40.696Z,99844.78
2023-02-01T17:07:12.312Z,99840.28
2023-02-01T17:09:40.090Z,99843.41
2023-02-01T17:12:08.403Z,99839.06
2023-02-01T17:14:38.427Z,99847.25
2023-02-01T17:17:08.567Z,99845.94
2023-02-01T17:19:36.134Z,99847.97
2023-02-01T17:22:03.911Z,99841.44
2023-02-01T17:24:46.455Z,99844.91
2023-02-01T17:27:16.760Z,99842.78
2023-02-01T17:29:45.366Z,99834.69
2023-02-01T17:32:17.226Z,99841.84
2023-02-01T17:34:46.970Z,99837.78
2023-02-01T17:37:31.575Z,99833.16
2023-02-01T17:39:59.756Z,99830.78
2023-02-01T17:42:28.883Z,99829.25
2023-02-01T17:44:57.400Z,99837.78
2023-02-01T17:47:27.572Z,99833.41
2023-02-01T17:49:58.019Z,99837.06
2023-02-01T17:52:26.349Z,99840.75
2023-02-01T17:54:54.791Z,99836.47
2023-02-01T17:57:22.411Z,99852.44
2023-02-01T17:59:49.622Z,99849.88
2023-02-01T18:02:24.165Z,99853.72
2023-02-01T18:04:52.254Z,99846.25
2023-02-01T18:07:19.695Z,99852.22
2023-02-01T18:09:47.982Z,99860.78
2023-02-01T18:12:19.822Z,99856.81
2023-02-01T18:14:47.473Z,99859.09
2023-02-01T18:17:16.872Z,99867.28
2023-02-01T18:19:45.128Z,99861.75
2023-02-01T18:22:15.710Z,99852.50
2023-02-01T18:24:44.223Z,99850.34
2023-02-01T18:27:12.840Z,99853.41
2023-02-01T18:29:40.991Z,99852.59
2023-02-01T18:32:09.798Z,99859.25
2023-02-01T18:34:42.898Z,99868.25
2023-02-01T18:37:11.319Z,99876.75
2023-02-01T18:39:40.420Z,99874.31
2023-02-01T18:42:10.502Z,99890.34
2023-02-01T18:44:39.294Z,99882.00
2023-02-01T18:47:08.313Z,99872.66
2023-02-01T18:49:37.753Z,99863.06
2023-02-01T18:52:07.013Z,99861.75
2023-02-01T18:54:36.027Z,99861.78
2023-02-01T18:57:04.695Z,99869.78
2023-02-01T18:59:32.743Z,99865.63
2023-02-01T19:02:01.500Z,99863.75
2023-02-01T19:04:30.331Z,99861.22
2023-02-01T19:07:00.461Z,99855.69
2023-02-01T19:09:29.540Z,99853.56
2023-02-01T19:11:57.083Z,99846.66
2023-02-01T19:14:24.821Z,99852.16
2023-02-01T19:16:55.311Z,99850.81
2023-02-01T19:19:25.111Z,99840.84
2023-02-01T19:21:55.413Z,99842.50
2023-02-01T19:24:28.283Z,99839.28
2023-02-01T19:26:57.424Z,99824.50
2023-02-01T19:29:25.534Z,99834.34
2023-02-01T19:31:54.064Z,99825.87
2023-02-01T19:34:24.162Z,99821.72
2023-02-01T19:36:53.136Z,99826.28
2023-02-01T19:39:22.414Z,99814.69
2023-02-01T19:41:52.770Z,99813.84
2023-02-01T19:44:21.136Z,99828.34
2023-02-01T19:46:49.723Z,99833.59
2023-02-01T19:49:19.108Z,99825.50
2023-02-01T19:51:49.259Z,99818.97
2023-02-01T19:54:17.255Z,99821.13
2023-02-01T19:56:46.545Z,99824.88
2023-02-01T19:59:15.798Z,99835.75
2023-02-01T20:01:47.016Z,99828.34
2023-02-01T20:04:16.329Z,99823.91
2023-02-01T20:06:49.435Z,99831.84
2023-02-01T20:09:22.739Z,99834.59
2023-02-01T20:11:51.007Z,99841.22
2023-02-01T20:14:24.634Z,99849.44
2023-02-01T20:16:52.709Z,99847.06
2023-02-01T20:19:23.553Z,99833.19
2023-02-01T20:21:52.716Z,99818.06
2023-02-01T20:24:22.951Z,99830.25
2023-02-01T20:26:53.158Z,99825.94
2023-02-01T20:29:25.995Z,99825.50
2023-02-01T20:31:54.809Z,99840.22
2023-02-01T20:34:24.669Z,99844.97
2023-02-01T20:36:53.152Z,99846.25
2023-02-01T20:39:21.664Z,99850.78
2023-02-01T20:41:50.296Z,99856.09
2023-02-01T20:44:21.139Z,99859.31
2023-02-01T20:46:49.717Z,99857.69
2023-02-01T20:49:18.101Z,99861.13
2023-02-01T20:51:46.561Z,99858.81
2023-02-01T20:54:15.922Z,99868.94
2023-02-01T20:56:45.462Z,99874.69
2023-02-01T20:59:14.362Z,99860.84
2023-02-01T21:01:52.121Z,99855.34
2023-02-01T21:04:20.753Z,99857.13
2023-02-01T21:06:49.977Z,99854.53
2023-02-01T21:09:18.759Z,99862.41
2023-02-01T21:11:46.675Z,99874.09
2023-02-01T21:14:14.872Z,99866.84
2023-02-01T21:16:42.453Z,99864.87
2023-02-01T21:19:10.277Z,99854.81
2023-02-01T21:21:38.494Z,99845.53
2023-02-01T21:24:06.332Z,99840.59
2023-02-01T21:26:42.444Z,99851.00
2023-02-01T21:29:12.381Z,99851.34
2023-02-01T21:31:40.541Z,99847.53
2023-02-01T21:34:08.127Z,99838.16
2023-02-01T21:36:35.928Z,99844.22
2023-02-01T21:39:06.859Z,99842.19
2023-02-01T21:41:53.580Z,99847.91
2023-02-01T21:44:23.844Z,99849.59
2023-02-01T21:46:51.131Z,99858.50
2023-02-01T21:49:18.379Z,99855.59
2023-02-01T21:51:46.162Z,99863.16
2023-02-01T21:54:13.536Z,99851.69
2023-02-01T21:56:40.953Z,99857.16
2023-02-01T21:59:12.872Z,99861.75
2023-02-01T22:01:40.482Z,99849.50
2023-02-01T22:04:09.114Z,99844.88
2023-02-01T22:06:38.408Z,99839.75
2023-02-01T22:09:05.628Z,99842.06
2023-02-01T22:11:33.215Z,99823.16
2023-02-01T22:14:00.603Z,99816.84
2023-02-01T22:16:27.835Z,99813.19
2023-02-01T22:18:55.344Z,99817.22
2023-02-01T22:21:24.105Z,99811.69
2023-02-01T22:23:54.774Z,99801.94
2023-02-01T22:26:22.488Z,99802.63
2023-02-01T22:28:49.830Z,99812.03
2023-02-01T22:31:17.592Z,99803.56
2023-02-01T22:33:45.744Z,99796.97
2023-02-01T22:36:13.175Z,99784.97
2023-02-01T22:38:40.826Z,99786.50
2023-02-01T22:41:08.603Z,99793.25
2023-02-01T22:43:35.892Z,99796.88
2023-02-01T22:46:04.152Z,99791.44
2023-02-01T22:48:33.141Z,99782.00
2023-02-01T22:51:00.533Z,99789.25
2023-02-01T22:53:28.080Z,99784.66
2023-02-01T22:56:05.309Z,99787.56
2023-02-01T22:58:32.552Z,99779.22
2023-02-01T23:01:09.729Z,99774.19
2023-02-01T23:03:37.301Z,99771.63
2023-02-01T23:06:05.970Z,99766.66
2023-02-01T23:08:35.479Z,99767.59
2023-02-01T23:11:04.240Z,99768.69
2023-02-01T23:13:32.023Z,99767.03
2023-02-01T23:15:59.367Z,99764.78
2023-02-01T23:18:45.168Z,99763.81
2023-02-01T23:21:13.945Z,99770.09
2023-02-01T23:23:41.126Z,99787.75
2023-02-01T23:26:08.322Z,99777.28
2023-02-01T23:28:35.810Z,99777.03
2023-02-01T23:31:07.200Z,99758.59
2023-02-01T23:33:34.647Z,99759.31
2023-02-01T23:36:02.764Z,99744.47
2023-02-01T23:38:30.036Z,99750.34
2023-02-01T23:41:02.076Z,99746.31
2023-02-01T23:43:48.341Z,99740.81
2023-02-01T23:46:15.899Z,99719.34
2023-02-01T23:48:43.869Z,99714.28
2023-02-01T23:51:11.308Z,99725.28
2023-02-01T23:53:38.570Z,99714.00
2023-02-01T23:56:06.459Z,99717.84
2023-02-01T23:58:33.605Z,99711.13
